CYPR/YPR METAR and TAF weather

Enter ICAO airport designator
Station Type Date Time Source
CYPR METAR 2020/04/04 04:00 UTC NOAA

CYPR 040400Z AUTO 00000KT 9SM OVC095 02/M05 A2997 RMK SLP153


Station Type Date Time Source
CYPR Decoded METAR 2020/04/04 04:00 UTC NOAA

Prince Rupert, B. C., Canada (CYPR) 54-18N 130-26W 34M
Apr 04, 2020 - 12:00 AM EDT / 2020.04.04 0400 UTC
Wind: Calm:0
Visibility: 9 mile(s):0
Sky conditions: overcast
Temperature: 35 F (2 C)
Dew Point: 23 F (-5 C)
Relative Humidity: 59%
Pressure (altimeter): 29.97 in. Hg (1014 hPa)
ob: CYPR 040400Z AUTO 00000KT 9SM OVC095 02/M05 A2997 RMK SLP153
cycle: 4

Station Type Date Time Source
CYPR TAF 2020/04/04 01:42 UTC NOAA

TAF CYPR 040038Z 0401/0413 30005KT P6SM BKN200
FM040400 VRB03KT P6SM OVC100
FM040600 06003KT P6SM OVC060
TEMPO 0406/0413 6SM -SN
RMK FCST BASED ON AUTO OBS. NXT FCST BY 040700Z

Example: see airport list